Time;durP1;ratioP1;P1;durP2;ratioP2;P2;SDS_P1;SDS_P2;PMS_P1;PMS_P2;Temp;Humidity;BMP_temperature;BMP_pressure;BME280_temperature;BME280_humidity;BME280_pressure;Samples;Min_cycle;Max_cycle;Signal;HPM_P1;HPM_P2
2022/01/01 00:02:20;;;;;;;70.60;44.78;;;;;;;;;;5008039;28;20077;-67
2022/01/01 00:05:03;;;;;;;59.95;38.80;;;;;;;;;;4999241;28;20049;-67
2022/01/01 00:07:29;;;;;;;58.50;36.95;;;;;;;;;;5006971;28;20054;-66
2022/01/01 00:09:55;;;;;;;53.17;29.88;;;;;;;;;;4993615;28;20061;-67
2022/01/01 00:12:26;;;;;;;45.33;26.25;;;;;;;;;;5000629;28;20433;-67
2022/01/01 00:14:53;;;;;;;41.97;25.30;;;;;;;;;;5006830;28;20050;-67
2022/01/01 00:17:19;;;;;;;34.38;22.50;;;;;;;;;;5000156;28;20050;-67
2022/01/01 00:19:45;;;;;;;30.90;17.55;;;;;;;;;;5007119;28;20045;-67
2022/01/01 00:22:12;;;;;;;32.17;16.95;;;;;;;;;;5000144;28;20056;-67
2022/01/01 00:24:38;;;;;;;36.35;17.83;;;;;;;;;;4998937;28;20165;-67
2022/01/01 00:27:04;;;;;;;35.40;16.48;;;;;;;;;;4998050;28;20068;-67
2022/01/01 00:29:31;;;;;;;32.13;15.52;;;;;;;;;;5011479;28;20072;-67
2022/01/01 00:31:57;;;;;;;30.48;15.85;;;;;;;;;;5006602;28;20057;-67
2022/01/01 00:34:24;;;;;;;30.15;14.43;;;;;;;;;;4999406;28;20050;-67
2022/01/01 00:36:51;;;;;;;33.65;16.20;;;;;;;;;;5002189;28;20057;-66
2022/01/01 00:39:17;;;;;;;37.00;18.08;;;;;;;;;;4995334;28;20368;-66
2022/01/01 00:41:43;;;;;;;37.08;18.15;;;;;;;;;;5037321;28;20077;-67
2022/01/01 00:44:10;;;;;;;37.45;18.83;;;;;;;;;;4999521;28;20049;-66
2022/01/01 00:46:36;;;;;;;33.35;19.20;;;;;;;;;;5012648;28;20058;-66
2022/01/01 00:49:03;;;;;;;37.63;19.50;;;;;;;;;;4998099;28;20766;-66
2022/01/01 00:51:29;;;;;;;36.58;19.23;;;;;;;;;;4993360;28;20133;-66
2022/01/01 00:53:56;;;;;;;38.63;21.17;;;;;;;;;;5001361;28;20073;-66
2022/01/01 00:56:22;;;;;;;40.65;22.35;;;;;;;;;;4997576;28;20056;-65
2022/01/01 00:58:48;;;;;;;45.67;24.20;;;;;;;;;;5004387;28;20057;-66
2022/01/01 01:01:14;;;;;;;47.72;24.50;;;;;;;;;;4994982;28;20054;-66
2022/01/01 01:03:41;;;;;;;42.50;23.40;;;;;;;;;;4999881;28;20511;-66
2022/01/01 01:06:10;;;;;;;42.63;25.08;;;;;;;;;;4999494;28;20297;-66
2022/01/01 01:08:36;;;;;;;40.50;25.05;;;;;;;;;;4996252;28;20537;-66
2022/01/01 01:11:07;;;;;;;41.08;24.75;;;;;;;;;;5004997;28;20491;-66
2022/01/01 01:13:34;;;;;;;53.10;29.92;;;;;;;;;;4997382;28;20050;-66
2022/01/01 01:16:00;;;;;;;62.80;33.47;;;;;;;;;;5005131;28;20042;-66
2022/01/01 01:18:27;;;;;;;60.95;36.33;;;;;;;;;;4992085;28;20074;-66
2022/01/01 01:20:53;;;;;;;60.90;34.40;;;;;;;;;;5000894;28;20050;-65
2022/01/01 01:23:19;;;;;;;58.85;35.20;;;;;;;;;;5005975;28;20050;-65
2022/01/01 01:25:46;;;;;;;59.92;35.83;;;;;;;;;;4995933;28;20061;-65
2022/01/01 01:28:14;;;;;;;53.92;35.38;;;;;;;;;;5005954;28;20072;-65
2022/01/01 01:30:40;;;;;;;60.15;36.97;;;;;;;;;;5003291;28;20462;-65
2022/01/01 01:33:08;;;;;;;55.05;35.00;;;;;;;;;;4998716;28;20065;-66
2022/01/01 01:35:34;;;;;;;58.22;34.78;;;;;;;;;;4994606;28;20128;-65
2022/01/01 01:38:01;;;;;;;60.30;37.83;;;;;;;;;;5004376;28;20471;-67
2022/01/01 01:40:27;;;;;;;58.22;37.60;;;;;;;;;;5004091;28;20061;-66
2022/01/01 01:42:54;;;;;;;65.82;38.63;;;;;;;;;;4996651;28;20077;-66
2022/01/01 01:45:22;;;;;;;64.20;38.33;;;;;;;;;;5001402;28;20050;-66
2022/01/01 01:47:50;;;;;;;57.22;37.33;;;;;;;;;;4989103;28;20291;-66
2022/01/01 01:50:17;;;;;;;54.60;37.30;;;;;;;;;;5004133;28;20080;-66
2022/01/01 01:52:50;;;;;;;63.95;35.97;;;;;;;;;;4996586;28;20471;-66
2022/01/01 01:55:17;;;;;;;61.65;36.33;;;;;;;;;;5004285;28;20061;-65
2022/01/01 01:57:43;;;;;;;59.53;33.47;;;;;;;;;;4996438;28;20057;-65
2022/01/01 02:00:38;;;;;;;62.33;34.30;;;;;;;;;;4999428;28;20076;-65
2022/01/01 02:03:00;;;;;;;55.25;32.72;;;;;;;;;;4998790;28;20064;-65
2022/01/01 02:05:27;;;;;;;62.30;33.25;;;;;;;;;;4996735;28;20077;-65
2022/01/01 02:07:54;;;;;;;55.75;32.15;;;;;;;;;;5004014;28;20077;-66
2022/01/01 02:10:20;;;;;;;61.03;36.05;;;;;;;;;;4997321;28;20046;-65
2022/01/01 02:12:54;;;;;;;55.25;34.67;;;;;;;;;;5004680;28;20391;-65
2022/01/01 02:15:45;;;;;;;57.75;34.00;;;;;;;;;;4990002;28;20076;-65
2022/01/01 02:18:11;;;;;;;56.40;35.35;;;;;;;;;;5003563;28;20581;-65
2022/01/01 02:20:38;;;;;;;69.35;40.22;;;;;;;;;;4995644;28;20052;-65
2022/01/01 02:23:05;;;;;;;61.78;36.00;;;;;;;;;;5035175;28;20425;-65
2022/01/01 02:25:32;;;;;;;63.15;36.38;;;;;;;;;;5003588;28;20052;-65
2022/01/01 02:27:58;;;;;;;57.92;33.90;;;;;;;;;;4990807;28;20061;-65
2022/01/01 02:30:26;;;;;;;59.28;33.90;;;;;;;;;;5011827;28;20053;-65
2022/01/01 02:32:52;;;;;;;59.70;34.63;;;;;;;;;;4994543;28;20045;-65
2022/01/01 02:35:19;;;;;;;60.00;36.10;;;;;;;;;;5011026;28;20060;-65
2022/01/01 02:37:45;;;;;;;53.67;33.22;;;;;;;;;;5003620;28;20052;-65
2022/01/01 02:40:12;;;;;;;57.42;32.00;;;;;;;;;;5003151;28;20057;-66
2022/01/01 02:42:39;;;;;;;49.17;29.77;;;;;;;;;;4998793;28;20056;-66
2022/01/01 02:45:08;;;;;;;61.22;35.65;;;;;;;;;;4990482;28;20053;-66
2022/01/01 02:47:35;;;;;;;48.88;32.08;;;;;;;;;;4993548;28;20448;-66
2022/01/01 02:50:02;;;;;;;56.42;31.67;;;;;;;;;;4995543;28;20058;-66
2022/01/01 02:52:28;;;;;;;45.88;30.83;;;;;;;;;;5002487;28;20057;-66
2022/01/01 02:54:55;;;;;;;63.15;34.50;;;;;;;;;;4997486;28;20061;-66
2022/01/01 02:57:21;;;;;;;50.95;29.90;;;;;;;;;;4995361;28;20065;-66
2022/01/01 02:59:48;;;;;;;47.95;28.95;;;;;;;;;;5001541;28;20432;-66
2022/01/01 03:02:15;;;;;;;48.95;28.80;;;;;;;;;;4994650;28;20061;-66
2022/01/01 03:04:41;;;;;;;55.08;31.15;;;;;;;;;;5002295;28;20046;-66
2022/01/01 03:07:08;;;;;;;57.55;28.42;;;;;;;;;;4995102;28;20057;-66
2022/01/01 03:09:34;;;;;;;49.53;27.90;;;;;;;;;;4997355;28;20049;-65
2022/01/01 03:12:02;;;;;;;47.20;27.58;;;;;;;;;;4991042;28;20492;-66
2022/01/01 03:14:28;;;;;;;53.33;27.50;;;;;;;;;;5002258;28;20054;-66
2022/01/01 03:16:55;;;;;;;52.10;28.35;;;;;;;;;;5003070;28;20164;-66
2022/01/01 03:19:21;;;;;;;48.78;26.50;;;;;;;;;;4995226;28;20057;-66
2022/01/01 03:21:48;;;;;;;47.17;26.95;;;;;;;;;;5003524;28;20049;-66
2022/01/01 03:24:14;;;;;;;46.88;26.98;;;;;;;;;;4991525;28;20057;-65
2022/01/01 03:26:40;;;;;;;57.78;26.95;;;;;;;;;;4999440;28;20423;-66
2022/01/01 03:29:07;;;;;;;41.28;24.80;;;;;;;;;;4994791;28;20057;-65
2022/01/01 03:31:33;;;;;;;44.78;25.35;;;;;;;;;;5001352;28;20060;-66
2022/01/01 03:34:00;;;;;;;41.72;23.83;;;;;;;;;;4998581;28;20054;-66
2022/01/01 03:36:27;;;;;;;41.25;23.83;;;;;;;;;;4992186;28;20097;-66
2022/01/01 03:38:53;;;;;;;44.30;24.77;;;;;;;;;;4994793;28;20080;-66
2022/01/01 03:41:20;;;;;;;40.45;23.27;;;;;;;;;;4993740;28;20426;-66
2022/01/01 03:43:46;;;;;;;41.00;22.67;;;;;;;;;;5003659;28;20054;-66
2022/01/01 03:46:13;;;;;;;42.63;23.67;;;;;;;;;;5000943;28;20061;-66
2022/01/01 03:48:39;;;;;;;38.63;20.77;;;;;;;;;;4999578;28;20049;-66
2022/01/01 03:51:05;;;;;;;37.60;19.77;;;;;;;;;;4998414;28;20382;-66
2022/01/01 03:53:32;;;;;;;45.13;21.17;;;;;;;;;;4990007;28;20057;-66
2022/01/01 03:55:59;;;;;;;36.72;18.52;;;;;;;;;;5002800;28;20050;-66
2022/01/01 03:58:25;;;;;;;35.78;19.02;;;;;;;;;;4997291;28;20066;-65
2022/01/01 04:00:52;;;;;;;32.83;17.67;;;;;;;;;;5004163;28;20042;-66
2022/01/01 04:03:18;;;;;;;41.20;18.98;;;;;;;;;;4988277;28;20577;-66
2022/01/01 04:05:45;;;;;;;34.25;17.80;;;;;;;;;;4991747;28;20045;-66
2022/01/01 04:08:12;;;;;;;38.55;17.88;;;;;;;;;;5000548;28;20046;-66
2022/01/01 04:10:39;;;;;;;34.17;16.08;;;;;;;;;;4993599;28;20050;-66
2022/01/01 04:13:06;;;;;;;29.98;15.68;;;;;;;;;;5003148;28;20758;-66
2022/01/01 04:15:33;;;;;;;32.08;15.27;;;;;;;;;;4994325;28;20056;-66
2022/01/01 04:18:03;;;;;;;32.38;15.48;;;;;;;;;;4998134;28;20057;-66
2022/01/01 04:20:29;;;;;;;32.20;14.90;;;;;;;;;;4998510;28;20045;-66
2022/01/01 04:22:56;;;;;;;26.52;14.50;;;;;;;;;;4993318;28;20081;-67
2022/01/01 04:25:24;;;;;;;27.10;14.02;;;;;;;;;;5003230;28;20054;-66
2022/01/01 04:27:51;;;;;;;33.35;12.98;;;;;;;;;;4994561;28;20076;-65
2022/01/01 04:30:17;;;;;;;33.25;13.48;;;;;;;;;;5002838;28;20426;-65
2022/01/01 04:32:44;;;;;;;25.98;10.85;;;;;;;;;;4990535;28;20779;-65
2022/01/01 04:35:10;;;;;;;20.80;12.23;;;;;;;;;;4998836;28;20064;-65
2022/01/01 04:37:38;;;;;;;32.80;12.18;;;;;;;;;;5002925;28;20065;-66
2022/01/01 04:40:05;;;;;;;29.40;10.80;;;;;;;;;;4998367;28;20092;-65
2022/01/01 04:42:31;;;;;;;25.00;9.88;;;;;;;;;;5016996;28;20510;-65
2022/01/01 04:45:00;;;;;;;24.48;10.15;;;;;;;;;;5003638;28;20523;-65
2022/01/01 04:47:27;;;;;;;25.02;9.68;;;;;;;;;;4998133;28;20057;-65
2022/01/01 04:49:53;;;;;;;20.48;8.65;;;;;;;;;;4999062;28;20068;-65
2022/01/01 04:52:19;;;;;;;20.63;8.85;;;;;;;;;;5004910;28;20148;-65
2022/01/01 04:54:46;;;;;;;18.55;7.90;;;;;;;;;;5005292;28;20052;-65
2022/01/01 04:57:12;;;;;;;18.77;7.85;;;;;;;;;;4998928;28;20072;-65
2022/01/01 04:59:40;;;;;;;17.70;7.72;;;;;;;;;;5000247;28;20048;-65
2022/01/01 05:02:07;;;;;;;19.55;8.20;;;;;;;;;;4991887;28;20056;-66
2022/01/01 05:04:33;;;;;;;19.70;7.45;;;;;;;;;;5004474;28;20425;-66
2022/01/01 05:07:00;;;;;;;19.92;7.82;;;;;;;;;;4998716;28;20054;-66
2022/01/01 05:09:28;;;;;;;18.00;7.68;;;;;;;;;;5005255;28;20061;-66
2022/01/01 05:11:54;;;;;;;20.67;8.52;;;;;;;;;;5004049;28;20065;-66
2022/01/01 05:14:20;;;;;;;17.50;7.20;;;;;;;;;;4991836;28;20060;-66
2022/01/01 05:16:47;;;;;;;18.48;7.88;;;;;;;;;;4999433;28;20062;-66
2022/01/01 05:19:15;;;;;;;16.38;6.75;;;;;;;;;;4997226;28;20510;-66
2022/01/01 05:21:41;;;;;;;15.05;6.68;;;;;;;;;;5005769;28;20057;-66
2022/01/01 05:24:08;;;;;;;18.52;7.43;;;;;;;;;;4997403;28;20058;-66
2022/01/01 05:26:34;;;;;;;17.83;7.25;;;;;;;;;;5005037;28;20424;-66
2022/01/01 05:29:00;;;;;;;17.55;7.30;;;;;;;;;;4997722;28;20053;-66
2022/01/01 05:31:27;;;;;;;19.70;7.40;;;;;;;;;;4993969;28;20431;-66
2022/01/01 05:33:55;;;;;;;19.10;8.18;;;;;;;;;;4993059;28;20068;-66
2022/01/01 05:36:22;;;;;;;20.60;8.63;;;;;;;;;;5010469;28;20469;-66
2022/01/01 05:38:49;;;;;;;16.63;7.25;;;;;;;;;;5005404;28;20049;-66
2022/01/01 05:41:15;;;;;;;14.90;7.20;;;;;;;;;;4995636;28;20905;-66
2022/01/01 05:43:41;;;;;;;15.60;7.13;;;;;;;;;;5000516;28;20050;-66
2022/01/01 05:46:08;;;;;;;14.73;6.95;;;;;;;;;;5004346;28;20739;-66
2022/01/01 05:48:34;;;;;;;16.98;8.10;;;;;;;;;;4997726;28;20084;-66
2022/01/01 05:51:00;;;;;;;18.45;7.70;;;;;;;;;;5005806;28;20424;-66
2022/01/01 05:53:27;;;;;;;18.92;7.65;;;;;;;;;;5013137;28;20064;-66
2022/01/01 05:55:53;;;;;;;18.58;7.25;;;;;;;;;;5002353;28;20522;-66
2022/01/01 05:58:19;;;;;;;17.17;7.43;;;;;;;;;;4994610;28;20050;-66
2022/01/01 06:00:46;;;;;;;16.13;7.32;;;;;;;;;;5004369;28;20447;-66
2022/01/01 06:03:13;;;;;;;16.60;7.40;;;;;;;;;;5005157;28;20045;-66
2022/01/01 06:05:39;;;;;;;19.17;7.32;;;;;;;;;;4996733;28;20050;-66
2022/01/01 06:08:05;;;;;;;14.45;6.70;;;;;;;;;;5003252;28;20045;-66
2022/01/01 06:10:32;;;;;;;14.27;6.88;;;;;;;;;;4991051;28;20413;-66
2022/01/01 06:12:58;;;;;;;15.52;6.82;;;;;;;;;;5001953;28;20064;-66
2022/01/01 06:15:25;;;;;;;16.77;7.53;;;;;;;;;;4995019;28;20057;-66
2022/01/01 06:17:51;;;;;;;13.93;6.82;;;;;;;;;;5003094;28;20056;-66
2022/01/01 06:20:17;;;;;;;13.60;6.55;;;;;;;;;;5004883;28;20046;-66
2022/01/01 06:23:02;;;;;;;14.85;6.47;;;;;;;;;;4989817;28;20891;-66
2022/01/01 06:25:28;;;;;;;13.20;6.43;;;;;;;;;;4999812;28;20159;-66
2022/01/01 06:27:54;;;;;;;18.45;6.53;;;;;;;;;;4997306;28;20065;-66
2022/01/01 06:30:21;;;;;;;15.32;6.35;;;;;;;;;;5005331;28;20086;-66
2022/01/01 06:32:49;;;;;;;19.85;6.35;;;;;;;;;;5005839;28;20561;-67
2022/01/01 06:35:16;;;;;;;18.00;7.18;;;;;;;;;;5013480;28;20050;-67
2022/01/01 06:37:42;;;;;;;16.30;6.65;;;;;;;;;;5000517;28;20046;-67
2022/01/01 06:40:09;;;;;;;13.98;6.13;;;;;;;;;;4993211;28;20058;-67
2022/01/01 06:42:35;;;;;;;13.15;5.70;;;;;;;;;;5004839;28;21001;-67
2022/01/01 06:45:01;;;;;;;13.13;5.70;;;;;;;;;;4995950;28;20057;-67
2022/01/01 06:47:28;;;;;;;15.02;6.68;;;;;;;;;;5004212;28;20057;-67
2022/01/01 06:49:54;;;;;;;15.90;6.13;;;;;;;;;;4995168;28;20061;-67
2022/01/01 06:52:20;;;;;;;16.88;5.38;;;;;;;;;;4997825;28;20053;-67
2022/01/01 06:54:47;;;;;;;13.68;6.65;;;;;;;;;;5005454;28;20049;-67
2022/01/01 06:57:13;;;;;;;15.90;6.07;;;;;;;;;;4996495;28;20052;-67
2022/01/01 06:59:39;;;;;;;14.05;5.97;;;;;;;;;;5002890;28;20061;-67
2022/01/01 07:02:05;;;;;;;13.23;5.63;;;;;;;;;;4997033;28;20072;-67
2022/01/01 07:04:32;;;;;;;13.50;5.68;;;;;;;;;;4998899;28;20057;-67
2022/01/01 07:06:58;;;;;;;13.23;5.22;;;;;;;;;;4993027;28;20056;-67
2022/01/01 07:09:25;;;;;;;15.68;6.22;;;;;;;;;;5003000;28;20058;-67
2022/01/01 07:11:51;;;;;;;14.95;5.60;;;;;;;;;;5002740;28;20442;-67
2022/01/01 07:14:21;;;;;;;14.75;5.18;;;;;;;;;;4994286;28;20061;-67
2022/01/01 07:16:47;;;;;;;12.00;4.63;;;;;;;;;;5000342;28;20135;-67
2022/01/01 07:19:14;;;;;;;16.42;5.60;;;;;;;;;;4990479;28;20521;-67
2022/01/01 07:21:40;;;;;;;13.48;5.00;;;;;;;;;;5003354;28;20052;-67
2022/01/01 07:24:06;;;;;;;11.90;4.88;;;;;;;;;;5013633;28;20422;-67
2022/01/01 07:26:33;;;;;;;15.88;5.45;;;;;;;;;;5004229;28;20054;-67
2022/01/01 07:28:59;;;;;;;15.25;5.57;;;;;;;;;;5002968;28;20062;-67
2022/01/01 07:31:25;;;;;;;13.20;5.18;;;;;;;;;;4992277;28;20073;-67
2022/01/01 07:33:52;;;;;;;10.68;5.13;;;;;;;;;;4999232;28;20058;-67
2022/01/01 07:36:18;;;;;;;13.65;4.70;;;;;;;;;;4995312;28;20054;-67
2022/01/01 07:38:44;;;;;;;11.85;4.47;;;;;;;;;;5003802;28;20506;-67
2022/01/01 07:41:10;;;;;;;13.23;4.97;;;;;;;;;;4997290;28;20050;-67
2022/01/01 07:43:38;;;;;;;11.80;4.75;;;;;;;;;;5003069;28;20057;-67
2022/01/01 07:46:04;;;;;;;14.20;5.20;;;;;;;;;;4998942;28;20060;-66
2022/01/01 07:48:31;;;;;;;11.05;4.32;;;;;;;;;;4991397;28;20054;-66
2022/01/01 07:50:58;;;;;;;16.55;5.28;;;;;;;;;;5002391;28;20054;-66
2022/01/01 07:53:24;;;;;;;13.35;4.40;;;;;;;;;;4994311;28;20053;-67
2022/01/01 07:55:50;;;;;;;11.95;4.18;;;;;;;;;;5002556;28;20077;-67
2022/01/01 07:58:16;;;;;;;12.00;4.18;;;;;;;;;;5025253;28;20065;-66
2022/01/01 08:00:43;;;;;;;15.85;4.43;;;;;;;;;;4995496;28;20054;-67
2022/01/01 08:03:10;;;;;;;10.13;4.22;;;;;;;;;;5000198;28;20085;-67
2022/01/01 08:05:36;;;;;;;13.85;4.43;;;;;;;;;;4994376;28;20494;-67
2022/01/01 08:08:03;;;;;;;12.00;4.20;;;;;;;;;;5002558;28;20054;-67
2022/01/01 08:10:30;;;;;;;10.57;4.38;;;;;;;;;;4993352;28;20050;-67
2022/01/01 08:12:56;;;;;;;12.20;3.92;;;;;;;;;;4984769;28;20049;-67
2022/01/01 08:15:23;;;;;;;11.90;4.90;;;;;;;;;;4995057;28;20133;-67
2022/01/01 08:17:49;;;;;;;13.07;4.60;;;;;;;;;;5005494;28;20553;-67
2022/01/01 08:20:16;;;;;;;10.48;4.32;;;;;;;;;;5005351;28;20045;-66
2022/01/01 08:22:42;;;;;;;12.15;4.00;;;;;;;;;;4996787;28;20462;-67
2022/01/01 08:25:08;;;;;;;10.23;4.15;;;;;;;;;;5006092;28;20046;-67
2022/01/01 08:27:34;;;;;;;12.88;4.05;;;;;;;;;;4992489;28;20510;-67
2022/01/01 08:30:01;;;;;;;9.50;3.53;;;;;;;;;;5007260;28;20119;-67
2022/01/01 08:32:27;;;;;;;13.02;4.68;;;;;;;;;;4997733;28;20125;-67
2022/01/01 08:34:53;;;;;;;12.80;4.57;;;;;;;;;;5004554;28;20046;-67
2022/01/01 08:37:20;;;;;;;11.48;4.43;;;;;;;;;;5006263;28;20038;-67
2022/01/01 08:39:47;;;;;;;12.60;4.38;;;;;;;;;;4999036;28;20488;-67
2022/01/01 08:42:13;;;;;;;11.00;4.10;;;;;;;;;;4998678;28;20049;-67
2022/01/01 08:44:40;;;;;;;11.88;3.63;;;;;;;;;;4996063;28;20061;-67
2022/01/01 08:47:06;;;;;;;10.32;4.28;;;;;;;;;;5007123;28;20777;-67
2022/01/01 08:49:32;;;;;;;9.90;4.40;;;;;;;;;;4998894;28;20147;-67
2022/01/01 08:51:59;;;;;;;10.10;4.22;;;;;;;;;;5006256;28;20060;-67
2022/01/01 08:54:25;;;;;;;11.60;4.72;;;;;;;;;;5002454;28;20485;-67
2022/01/01 08:56:52;;;;;;;14.00;4.57;;;;;;;;;;4993260;28;20053;-67
2022/01/01 08:59:18;;;;;;;10.00;4.05;;;;;;;;;;5006195;28;20278;-67
2022/01/01 09:01:44;;;;;;;15.73;4.60;;;;;;;;;;4999408;28;20041;-67
2022/01/01 09:04:11;;;;;;;14.13;3.90;;;;;;;;;;5006210;28;20133;-67
2022/01/01 09:06:37;;;;;;;12.00;4.15;;;;;;;;;;5000806;28;20058;-67
2022/01/01 09:09:04;;;;;;;12.10;4.25;;;;;;;;;;4998421;28;20061;-67
2022/01/01 09:11:30;;;;;;;10.93;4.53;;;;;;;;;;5001447;28;20054;-67
2022/01/01 09:13:56;;;;;;;10.15;4.05;;;;;;;;;;4998068;28;20057;-67
2022/01/01 09:16:29;;;;;;;10.00;4.15;;;;;;;;;;5005714;28;20058;-66
2022/01/01 09:18:56;;;;;;;12.65;3.92;;;;;;;;;;4996979;28;20057;-67
2022/01/01 09:21:22;;;;;;;9.73;4.15;;;;;;;;;;5004792;28;20487;-67
2022/01/01 09:23:49;;;;;;;11.82;4.50;;;;;;;;;;4994119;28;20108;-66
2022/01/01 09:26:15;;;;;;;9.52;3.83;;;;;;;;;;4998832;28;20054;-67
2022/01/01 09:28:41;;;;;;;11.80;4.20;;;;;;;;;;5004989;28;20405;-67
2022/01/01 09:31:08;;;;;;;8.55;3.33;;;;;;;;;;4997142;28;20061;-66
2022/01/01 09:33:34;;;;;;;9.88;4.15;;;;;;;;;;5004462;28;20097;-66
2022/01/01 09:36:04;;;;;;;10.68;4.00;;;;;;;;;;4995779;28;20444;-66
2022/01/01 09:38:32;;;;;;;10.10;4.00;;;;;;;;;;4997200;28;20052;-67
2022/01/01 09:40:59;;;;;;;10.30;3.88;;;;;;;;;;5000702;28;20050;-66
2022/01/01 09:43:26;;;;;;;10.23;4.05;;;;;;;;;;5003912;28;20433;-67
2022/01/01 09:45:53;;;;;;;9.23;3.40;;;;;;;;;;5003771;28;20058;-67
2022/01/01 09:48:21;;;;;;;11.52;4.38;;;;;;;;;;4996673;28;20066;-66
2022/01/01 09:50:54;;;;;;;12.20;3.95;;;;;;;;;;5000293;28;20072;-67
2022/01/01 09:53:23;;;;;;;8.70;3.97;;;;;;;;;;4993807;28;20138;-67
2022/01/01 09:55:50;;;;;;;8.18;3.60;;;;;;;;;;5003461;28;20050;-66
2022/01/01 09:58:20;;;;;;;9.80;3.83;;;;;;;;;;4997705;28;20090;-66
2022/01/01 10:00:49;;;;;;;10.68;3.92;;;;;;;;;;5004020;28;20046;-67
2022/01/01 10:03:16;;;;;;;11.52;4.05;;;;;;;;;;5004732;28;20129;-67
2022/01/01 10:06:01;;;;;;;9.23;4.18;;;;;;;;;;4990804;28;20535;-67
2022/01/01 10:08:28;;;;;;;11.55;3.55;;;;;;;;;;5001170;28;20049;-66
2022/01/01 10:10:54;;;;;;;9.25;3.50;;;;;;;;;;4993831;28;20049;-67
2022/01/01 10:13:25;;;;;;;10.43;3.75;;;;;;;;;;5003932;28;20072;-67
2022/01/01 10:15:52;;;;;;;10.27;4.35;;;;;;;;;;4994290;28;20081;-67
2022/01/01 10:18:23;;;;;;;9.27;4.05;;;;;;;;;;5000541;28;20046;-66
2022/01/01 10:20:54;;;;;;;9.05;3.70;;;;;;;;;;4997164;28;20058;-67
2022/01/01 10:23:26;;;;;;;8.13;4.28;;;;;;;;;;4998772;28;20804;-67
2022/01/01 10:28:53;;;;;;;9.40;4.32;;;;;;;;;;4995139;28;20053;-67
2022/01/01 10:31:19;;;;;;;10.13;4.25;;;;;;;;;;5004434;28;20065;-67
2022/01/01 10:33:46;;;;;;;7.90;4.13;;;;;;;;;;4990137;28;20045;-67
2022/01/01 10:36:13;;;;;;;9.60;4.18;;;;;;;;;;4999075;28;20056;-66
2022/01/01 10:38:40;;;;;;;9.95;4.10;;;;;;;;;;4994739;28;20057;-67
2022/01/01 10:41:07;;;;;;;9.88;4.15;;;;;;;;;;5002617;28;20046;-67
2022/01/01 10:43:37;;;;;;;9.20;3.97;;;;;;;;;;5003438;28;20141;-67
2022/01/01 10:46:04;;;;;;;10.02;4.28;;;;;;;;;;4993253;28;20430;-66
2022/01/01 10:51:04;;;;;;;9.70;4.20;;;;;;;;;;4994540;28;20054;-66
2022/01/01 10:53:30;;;;;;;11.07;4.40;;;;;;;;;;5004246;28;20169;-66
2022/01/01 10:55:58;;;;;;;8.00;3.95;;;;;;;;;;4995175;28;20049;-67
2022/01/01 10:58:29;;;;;;;8.50;4.13;;;;;;;;;;5003592;28;20190;-66
2022/01/01 11:01:00;;;;;;;9.32;4.30;;;;;;;;;;4998860;28;20064;-66
2022/01/01 11:03:28;;;;;;;9.43;4.53;;;;;;;;;;4990884;28;20056;-66
2022/01/01 11:06:06;;;;;;;11.60;4.53;;;;;;;;;;5003300;28;20060;-67
2022/01/01 11:08:33;;;;;;;10.05;4.53;;;;;;;;;;4994956;28;20081;-66
2022/01/01 11:10:59;;;;;;;10.10;4.90;;;;;;;;;;5003652;28;20069;-66
2022/01/01 11:13:26;;;;;;;9.77;4.18;;;;;;;;;;4996598;28;20054;-66
2022/01/01 11:15:52;;;;;;;8.43;4.15;;;;;;;;;;4998600;28;20050;-66
2022/01/01 11:18:19;;;;;;;9.60;4.07;;;;;;;;;;4991550;28;20050;-66
2022/01/01 11:20:45;;;;;;;8.43;4.28;;;;;;;;;;5001608;28;20050;-67
2022/01/01 11:23:12;;;;;;;8.55;3.72;;;;;;;;;;5004378;28;20264;-67
2022/01/01 11:25:39;;;;;;;10.75;3.85;;;;;;;;;;4997677;28;20065;-66
2022/01/01 11:28:07;;;;;;;10.15;3.80;;;;;;;;;;5000325;28;20415;-67
2022/01/01 11:30:36;;;;;;;7.95;3.80;;;;;;;;;;4989626;28;20054;-67
2022/01/01 11:33:07;;;;;;;8.02;3.78;;;;;;;;;;5002865;28;20072;-67
2022/01/01 11:35:38;;;;;;;8.40;4.10;;;;;;;;;;4996109;28;20065;-67
2022/01/01 11:38:04;;;;;;;10.00;4.00;;;;;;;;;;5002139;28;20149;-67
2022/01/01 11:40:33;;;;;;;8.13;3.70;;;;;;;;;;5002298;28;20054;-66
2022/01/01 11:43:00;;;;;;;8.75;4.22;;;;;;;;;;4990451;28;20057;-66
2022/01/01 11:45:43;;;;;;;8.98;4.30;;;;;;;;;;4999444;28;20050;-66
2022/01/01 11:48:41;;;;;;;9.00;4.40;;;;;;;;;;4997058;28;20468;-66
2022/01/01 11:51:26;;;;;;;12.20;4.43;;;;;;;;;;4995142;28;20056;-66
2022/01/01 11:54:03;;;;;;;7.40;3.83;;;;;;;;;;4999846;28;20487;-66
2022/01/01 11:56:52;;;;;;;7.90;4.18;;;;;;;;;;5001675;28;20082;-66
2022/01/01 11:59:19;;;;;;;10.20;4.70;;;;;;;;;;4994465;28;20435;-66
2022/01/01 12:01:45;;;;;;;8.77;3.63;;;;;;;;;;5006285;28;20049;-67
2022/01/01 12:04:27;;;;;;;9.60;4.10;;;;;;;;;;5001724;28;20049;-66
2022/01/01 12:06:56;;;;;;;7.68;3.88;;;;;;;;;;5007258;28;20060;-67
2022/01/01 12:09:23;;;;;;;8.35;3.83;;;;;;;;;;5003420;28;20056;-66
2022/01/01 12:11:53;;;;;;;7.68;4.20;;;;;;;;;;4991735;28;20054;-66
2022/01/01 12:14:22;;;;;;;9.90;4.78;;;;;;;;;;5007060;28;20057;-67
2022/01/01 12:16:51;;;;;;;7.32;4.05;;;;;;;;;;4996860;28;20046;-67
2022/01/01 12:19:19;;;;;;;9.20;4.50;;;;;;;;;;5006048;28;20054;-67
2022/01/01 12:21:47;;;;;;;9.05;4.50;;;;;;;;;;4997992;28;20183;-66
2022/01/01 12:24:17;;;;;;;10.20;4.70;;;;;;;;;;5002925;28;20050;-66
2022/01/01 12:26:52;;;;;;;9.93;4.47;;;;;;;;;;5000711;28;20283;-66
2022/01/01 12:29:23;;;;;;;8.85;4.45;;;;;;;;;;5005658;28;20133;-66
2022/01/01 12:31:57;;;;;;;9.40;3.85;;;;;;;;;;5004626;28;20060;-66
2022/01/01 12:34:23;;;;;;;8.40;4.25;;;;;;;;;;4998587;28;20535;-67
2022/01/01 12:36:55;;;;;;;9.15;4.13;;;;;;;;;;5001962;28;20529;-66
2022/01/01 12:39:21;;;;;;;7.75;3.78;;;;;;;;;;4993518;28;20053;-66
2022/01/01 12:41:48;;;;;;;9.05;3.63;;;;;;;;;;5005356;28;20054;-66
2022/01/01 12:44:16;;;;;;;7.47;4.15;;;;;;;;;;4998926;28;20053;-66
2022/01/01 12:46:46;;;;;;;10.18;3.85;;;;;;;;;;5005720;28;20053;-66
2022/01/01 12:49:13;;;;;;;8.48;3.65;;;;;;;;;;5006271;28;20057;-66
2022/01/01 12:51:40;;;;;;;8.40;3.88;;;;;;;;;;4992940;28;20084;-67
2022/01/01 12:54:08;;;;;;;7.55;3.85;;;;;;;;;;5001772;28;20663;-66
2022/01/01 12:56:35;;;;;;;10.27;3.88;;;;;;;;;;4999641;28;20049;-66
2022/01/01 12:59:07;;;;;;;8.73;3.80;;;;;;;;;;5005518;28;20479;-66
2022/01/01 13:01:35;;;;;;;8.45;3.28;;;;;;;;;;4999511;28;20665;-66
2022/01/01 13:04:06;;;;;;;6.78;3.40;;;;;;;;;;5005325;28;20511;-66
2022/01/01 13:06:34;;;;;;;7.65;3.40;;;;;;;;;;5000392;28;20061;-66
2022/01/01 13:09:05;;;;;;;6.97;3.58;;;;;;;;;;4996818;28;20046;-67
2022/01/01 13:11:32;;;;;;;6.53;3.60;;;;;;;;;;5005693;28;20145;-67
2022/01/01 13:13:58;;;;;;;7.03;3.55;;;;;;;;;;4999271;28;20413;-67
2022/01/01 13:16:25;;;;;;;9.13;3.17;;;;;;;;;;5005242;28;20057;-67
2022/01/01 13:18:51;;;;;;;7.97;3.90;;;;;;;;;;4995745;28;20049;-66
2022/01/01 13:21:18;;;;;;;6.53;3.67;;;;;;;;;;5000530;28;20066;-66
2022/01/01 13:23:45;;;;;;;7.65;3.80;;;;;;;;;;5005645;28;20443;-66
2022/01/01 13:26:11;;;;;;;7.38;3.42;;;;;;;;;;5030609;28;20062;-66
2022/01/01 13:28:38;;;;;;;9.00;4.30;;;;;;;;;;5004867;28;20061;-67
2022/01/01 13:31:05;;;;;;;9.77;3.78;;;;;;;;;;4997716;28;20064;-67
2022/01/01 13:33:32;;;;;;;7.55;3.55;;;;;;;;;;5001595;28;20096;-66
2022/01/01 13:36:00;;;;;;;6.28;3.55;;;;;;;;;;4992874;28;20054;-66
2022/01/01 13:38:28;;;;;;;5.80;3.65;;;;;;;;;;5004574;28;20053;-66
2022/01/01 13:40:57;;;;;;;12.57;6.07;;;;;;;;;;5004045;28;20057;-66
2022/01/01 13:43:23;;;;;;;;;;;;;;;;;;4996002;28;20064;-66
2022/01/01 13:46:03;;;;;;;7.97;4.43;;;;;;;;;;5005136;28;19926;-67
2022/01/01 13:48:38;;;;;;;7.10;3.63;;;;;;;;;;4996322;28;20049;-67
2022/01/01 13:51:05;;;;;;;5.25;3.42;;;;;;;;;;5005399;28;20057;-67
2022/01/01 13:53:31;;;;;;;5.68;3.40;;;;;;;;;;4998317;28;20522;-67
2022/01/01 13:56:02;;;;;;;6.25;3.28;;;;;;;;;;5004981;28;20543;-67
2022/01/01 13:58:28;;;;;;;7.93;3.92;;;;;;;;;;4993061;28;20582;-67
2022/01/01 14:00:57;;;;;;;8.35;3.78;;;;;;;;;;4998684;28;20053;-67
2022/01/01 14:03:24;;;;;;;5.72;3.25;;;;;;;;;;5005440;28;20137;-67
2022/01/01 14:05:52;;;;;;;9.60;4.32;;;;;;;;;;4996623;28;20437;-67
2022/01/01 14:08:19;;;;;;;6.57;3.60;;;;;;;;;;5004251;28;20057;-67
2022/01/01 14:10:55;;;;;;;9.57;4.30;;;;;;;;;;4996495;28;20053;-67
2022/01/01 14:13:32;;;;;;;11.63;5.22;;;;;;;;;;4998735;28;20141;-67
2022/01/01 14:15:59;;;;;;;9.50;4.28;;;;;;;;;;4995737;28;20477;-67
2022/01/01 14:18:32;;;;;;;8.48;4.60;;;;;;;;;;5003929;28;20061;-67
2022/01/01 14:20:59;;;;;;;9.27;4.82;;;;;;;;;;5003071;28;20060;-67
2022/01/01 14:23:27;;;;;;;9.25;4.43;;;;;;;;;;4994368;28;20435;-67
2022/01/01 14:25:58;;;;;;;7.28;3.90;;;;;;;;;;4998889;28;20054;-67
2022/01/01 14:28:25;;;;;;;11.23;5.18;;;;;;;;;;4990754;28;20169;-67
2022/01/01 14:30:52;;;;;;;8.45;5.18;;;;;;;;;;5002708;28;20058;-67
2022/01/01 14:33:19;;;;;;;8.05;4.10;;;;;;;;;;4997719;28;20499;-67
2022/01/01 14:35:45;;;;;;;7.13;3.50;;;;;;;;;;5002560;28;20743;-66
2022/01/01 14:38:12;;;;;;;7.80;3.88;;;;;;;;;;5003835;28;20061;-66